sensor_id;sensor_type;location;lat;lon;timestamp;pressure;altitude;pressure_sealevel;temperature;humidity
66681;BME280;53575;51.366;12.350;2023-03-20T00:00:13;100354.94;;;9.95;98.60
66681;BME280;53575;51.366;12.350;2023-03-20T00:02:40;100354.09;;;10.01;98.16
66681;BME280;53575;51.366;12.350;2023-03-20T00:05:20;100352.34;;;10.01;97.53
66681;BME280;53575;51.366;12.350;2023-03-20T00:07:47;100357.53;;;10.03;97.63
66681;BME280;53575;51.366;12.350;2023-03-20T00:10:14;100358.41;;;10.08;97.50
66681;BME280;53575;51.366;12.350;2023-03-20T00:12:40;100354.91;;;10.14;97.03
66681;BME280;53575;51.366;12.350;2023-03-20T00:15:37;100352.25;;;10.24;96.63
66681;BME280;53575;51.366;12.350;2023-03-20T00:18:03;100352.31;;;10.15;96.50
66681;BME280;53575;51.366;12.350;2023-03-20T00:20:28;100344.47;;;10.06;97.19
66681;BME280;53575;51.366;12.350;2023-03-20T00:22:54;100355.81;;;10.08;97.36
66681;BME280;53575;51.366;12.350;2023-03-20T00:25:22;100346.25;;;10.04;97.68
66681;BME280;53575;51.366;12.350;2023-03-20T00:27:49;100341.03;;;9.98;98.04
66681;BME280;53575;51.366;12.350;2023-03-20T00:30:21;100340.22;;;9.88;98.42
66681;BME280;53575;51.366;12.350;2023-03-20T00:32:49;100348.06;;;9.77;99.08
66681;BME280;53575;51.366;12.350;2023-03-20T00:37:45;100334.19;;;9.51;100.00
66681;BME280;53575;51.366;12.350;2023-03-20T00:40:11;100337.69;;;9.44;100.00
66681;BME280;53575;51.366;12.350;2023-03-20T00:42:37;100343.78;;;9.27;100.00
66681;BME280;53575;51.366;12.350;2023-03-20T00:45:02;100334.22;;;9.28;100.00
66681;BME280;53575;51.366;12.350;2023-03-20T00:47:29;100344.63;;;9.14;100.00
66681;BME280;53575;51.366;12.350;2023-03-20T00:49:58;100338.53;;;9.00;100.00
66681;BME280;53575;51.366;12.350;2023-03-20T00:52:23;100343.78;;;8.98;100.00
66681;BME280;53575;51.366;12.350;2023-03-20T00:54:49;100349.00;;;9.09;100.00
66681;BME280;53575;51.366;12.350;2023-03-20T00:59:55;100344.66;;;9.23;100.00
66681;BME280;53575;51.366;12.350;2023-03-20T01:02:25;100342.03;;;9.39;100.00
66681;BME280;53575;51.366;12.350;2023-03-20T01:04:53;100335.94;;;9.55;100.00
66681;BME280;53575;51.366;12.350;2023-03-20T01:07:19;100342.88;;;9.56;100.00
66681;BME280;53575;51.366;12.350;2023-03-20T01:09:44;100344.59;;;9.63;100.00
66681;BME280;53575;51.366;12.350;2023-03-20T01:12:12;100335.00;;;9.65;100.00
66681;BME280;53575;51.366;12.350;2023-03-20T01:14:39;100342.88;;;9.62;100.00
66681;BME280;53575;51.366;12.350;2023-03-20T01:17:04;100346.38;;;9.58;100.00
66681;BME280;53575;51.366;12.350;2023-03-20T01:19:30;100342.88;;;9.55;100.00
66681;BME280;53575;51.366;12.350;2023-03-20T01:21:55;100342.00;;;9.60;100.00
66681;BME280;53575;51.366;12.350;2023-03-20T01:24:21;100342.84;;;9.61;100.00
66681;BME280;53575;51.366;12.350;2023-03-20T01:26:46;100355.03;;;9.66;100.00
66681;BME280;53575;51.366;12.350;2023-03-20T01:29:19;100344.59;;;9.65;100.00
66681;BME280;53575;51.366;12.350;2023-03-20T01:31:46;100349.81;;;9.63;100.00
66681;BME280;53575;51.366;12.350;2023-03-20T01:34:11;100351.56;;;9.70;100.00
66681;BME280;53575;51.366;12.350;2023-03-20T01:36:37;100350.72;;;9.51;100.00
66681;BME280;53575;51.366;12.350;2023-03-20T01:39:03;100350.72;;;9.45;100.00
66681;BME280;53575;51.366;12.350;2023-03-20T01:41:30;100350.72;;;9.30;100.00
66681;BME280;53575;51.366;12.350;2023-03-20T01:43:56;100341.16;;;9.29;100.00
66681;BME280;53575;51.366;12.350;2023-03-20T01:46:27;100351.59;;;9.31;100.00
66681;BME280;53575;51.366;12.350;2023-03-20T01:50:16;100346.38;;;9.47;100.00
66681;BME280;53575;51.366;12.350;2023-03-20T01:51:54;100348.13;;;9.15;100.00
66681;BME280;53575;51.366;12.350;2023-03-20T02:02:05;100355.91;;;9.04;100.00
66681;BME280;53575;51.366;12.350;2023-03-20T02:04:34;100355.94;;;9.06;100.00
66681;BME280;53575;51.366;12.350;2023-03-20T02:07:02;100358.53;;;8.90;100.00
66681;BME280;53575;51.366;12.350;2023-03-20T02:09:28;100362.88;;;8.90;100.00
66681;BME280;53575;51.366;12.350;2023-03-20T02:11:54;100352.47;;;8.90;100.00
66681;BME280;53575;51.366;12.350;2023-03-20T02:14:21;100349.81;;;8.81;100.00
66681;BME280;53575;51.366;12.350;2023-03-20T02:16:46;100355.06;;;8.91;100.00
66681;BME280;53575;51.366;12.350;2023-03-20T02:44:18;100342.88;;;9.27;100.00
66681;BME280;53575;51.366;12.350;2023-03-20T02:46:57;100345.50;;;9.25;100.00
66681;BME280;53575;51.366;12.350;2023-03-20T02:50:01;100340.31;;;9.24;100.00
66681;BME280;53575;51.366;12.350;2023-03-20T02:52:50;100334.19;;;9.26;100.00
66681;BME280;53575;51.366;12.350;2023-03-20T03:03:17;100348.13;;;9.28;100.00
66681;BME280;53575;51.366;12.350;2023-03-20T03:05:48;100339.44;;;9.23;100.00
66681;BME280;53575;51.366;12.350;2023-03-20T03:08:15;100338.56;;;9.26;100.00
66681;BME280;53575;51.366;12.350;2023-03-20T03:10:47;100339.44;;;9.22;100.00
66681;BME280;53575;51.366;12.350;2023-03-20T03:13:19;100341.19;;;9.17;100.00
66681;BME280;53575;51.366;12.350;2023-03-20T03:15:49;100334.22;;;9.17;100.00
66681;BME280;53575;51.366;12.350;2023-03-20T03:18:19;100340.28;;;9.22;100.00
66681;BME280;53575;51.366;12.350;2023-03-20T03:20:49;100349.00;;;9.21;100.00
66681;BME280;53575;51.366;12.350;2023-03-20T03:23:28;100346.38;;;9.18;100.00
66681;BME280;53575;51.366;12.350;2023-03-20T03:25:56;100346.38;;;9.03;100.00
66681;BME280;53575;51.366;12.350;2023-03-20T03:28:36;100344.63;;;9.07;100.00
66681;BME280;53575;51.366;12.350;2023-03-20T03:31:15;100349.88;;;9.08;100.00
66681;BME280;53575;51.366;12.350;2023-03-20T03:33:45;100354.22;;;9.21;100.00
66681;BME280;53575;51.366;12.350;2023-03-20T03:36:50;100347.25;;;9.19;100.00
66681;BME280;53575;51.366;12.350;2023-03-20T03:44:22;100364.63;;;9.09;100.00
66681;BME280;53575;51.366;12.350;2023-03-20T03:46:55;100368.97;;;9.07;100.00
66681;BME280;53575;51.366;12.350;2023-03-20T03:49:26;100359.41;;;9.14;100.00
66681;BME280;53575;51.366;12.350;2023-03-20T03:52:00;100370.72;;;9.17;100.00
66681;BME280;53575;51.366;12.350;2023-03-20T03:57:00;100364.63;;;9.03;100.00
66681;BME280;53575;51.366;12.350;2023-03-20T03:59:33;100371.59;;;9.06;100.00
66681;BME280;53575;51.366;12.350;2023-03-20T04:02:01;100368.13;;;9.13;100.00
66681;BME280;53575;51.366;12.350;2023-03-20T04:04:30;100371.56;;;9.10;100.00
66681;BME280;53575;51.366;12.350;2023-03-20T04:06:56;100364.59;;;9.00;100.00
66681;BME280;53575;51.366;12.350;2023-03-20T04:09:22;100360.25;;;8.91;100.00
66681;BME280;53575;51.366;12.350;2023-03-20T04:11:50;100356.81;;;8.94;100.00
66681;BME280;53575;51.366;12.350;2023-03-20T04:14:16;100364.59;;;8.95;100.00
66681;BME280;53575;51.366;12.350;2023-03-20T04:16:42;100366.38;;;8.98;100.00
66681;BME280;53575;51.366;12.350;2023-03-20T04:19:08;100372.47;;;9.09;100.00
66681;BME280;53575;51.366;12.350;2023-03-20T04:21:33;100380.25;;;9.11;100.00
66681;BME280;53575;51.366;12.350;2023-03-20T04:23:59;100378.53;;;9.00;100.00
66681;BME280;53575;51.366;12.350;2023-03-20T04:26:24;100387.22;;;9.09;100.00
66681;BME280;53575;51.366;12.350;2023-03-20T04:28:50;100381.16;;;9.17;100.00
66681;BME280;53575;51.366;12.350;2023-03-20T04:31:16;100380.28;;;9.01;100.00
66681;BME280;53575;51.366;12.350;2023-03-20T04:33:42;100381.13;;;8.96;100.00
66681;BME280;53575;51.366;12.350;2023-03-20T04:36:08;100393.28;;;9.03;100.00
66681;BME280;53575;51.366;12.350;2023-03-20T04:38:34;100395.03;;;9.04;100.00
66681;BME280;53575;51.366;12.350;2023-03-20T04:41:00;100399.38;;;8.99;100.00
66681;BME280;53575;51.366;12.350;2023-03-20T04:43:26;100395.91;;;9.03;100.00
66681;BME280;53575;51.366;12.350;2023-03-20T04:45:52;100398.50;;;9.03;100.00
66681;BME280;53575;51.366;12.350;2023-03-20T04:48:17;100399.41;;;9.08;100.00
66681;BME280;53575;51.366;12.350;2023-03-20T04:50:43;100411.53;;;9.06;100.00
66681;BME280;53575;51.366;12.350;2023-03-20T04:53:13;100402.84;;;8.98;100.00
66681;BME280;53575;51.366;12.350;2023-03-20T04:55:38;100405.47;;;9.07;100.00
66681;BME280;53575;51.366;12.350;2023-03-20T04:58:04;100401.13;;;9.17;100.00
66681;BME280;53575;51.366;12.350;2023-03-20T05:00:29;100408.06;;;9.15;100.00
66681;BME280;53575;51.366;12.350;2023-03-20T05:02:55;100408.94;;;9.06;100.00
66681;BME280;53575;51.366;12.350;2023-03-20T05:05:21;100408.94;;;9.11;100.00
66681;BME280;53575;51.366;12.350;2023-03-20T05:07:47;100410.69;;;9.10;100.00
66681;BME280;53575;51.366;12.350;2023-03-20T05:10:13;100410.66;;;9.07;100.00
66681;BME280;53575;51.366;12.350;2023-03-20T05:12:38;100411.56;;;9.09;100.00
66681;BME280;53575;51.366;12.350;2023-03-20T05:15:04;100408.09;;;9.13;100.00
66681;BME280;53575;51.366;12.350;2023-03-20T05:17:30;100424.59;;;9.05;100.00
66681;BME280;53575;51.366;12.350;2023-03-20T05:19:55;100423.72;;;9.09;100.00
66681;BME280;53575;51.366;12.350;2023-03-20T05:22:21;100424.59;;;9.15;100.00
66681;BME280;53575;51.366;12.350;2023-03-20T05:24:47;100422.00;;;9.17;100.00
66681;BME280;53575;51.366;12.350;2023-03-20T05:27:12;100422.00;;;9.17;100.00
66681;BME280;53575;51.366;12.350;2023-03-20T05:29:38;100418.50;;;9.12;100.00
66681;BME280;53575;51.366;12.350;2023-03-20T05:32:04;100419.38;;;9.21;100.00
66681;BME280;53575;51.366;12.350;2023-03-20T05:34:29;100414.16;;;9.18;100.00
66681;BME280;53575;51.366;12.350;2023-03-20T05:36:56;100421.13;;;9.25;100.00
66681;BME280;53575;51.366;12.350;2023-03-20T05:39:21;100421.13;;;9.35;100.00
66681;BME280;53575;51.366;12.350;2023-03-20T05:41:47;100422.91;;;9.39;100.00
66681;BME280;53575;51.366;12.350;2023-03-20T05:44:12;100424.63;;;9.44;100.00
66681;BME280;53575;51.366;12.350;2023-03-20T05:46:38;100428.09;;;9.40;100.00
66681;BME280;53575;51.366;12.350;2023-03-20T05:49:03;100429.84;;;9.47;100.00
66681;BME280;53575;51.366;12.350;2023-03-20T05:51:29;100435.06;;;9.44;100.00
66681;BME280;53575;51.366;12.350;2023-03-20T05:53:55;100434.16;;;9.50;100.00
66681;BME280;53575;51.366;12.350;2023-03-20T05:56:20;100430.69;;;9.45;100.00
66681;BME280;53575;51.366;12.350;2023-03-20T05:58:45;100428.97;;;9.53;100.00
66681;BME280;53575;51.366;12.350;2023-03-20T06:01:11;100438.53;;;9.60;100.00
66681;BME280;53575;51.366;12.350;2023-03-20T06:03:40;100442.03;;;9.62;100.00
66681;BME280;53575;51.366;12.350;2023-03-20T06:06:06;100442.00;;;9.56;100.00
66681;BME280;53575;51.366;12.350;2023-03-20T06:08:32;100442.88;;;9.73;100.00
66681;BME280;53575;51.366;12.350;2023-03-20T06:10:57;100444.59;;;9.65;100.00
66681;BME280;53575;51.366;12.350;2023-03-20T06:13:23;100447.22;;;9.68;100.00
66681;BME280;53575;51.366;12.350;2023-03-20T06:15:48;100446.38;;;9.66;100.00
66681;BME280;53575;51.366;12.350;2023-03-20T06:18:13;100447.22;;;9.77;100.00
66681;BME280;53575;51.366;12.350;2023-03-20T06:20:39;100456.81;;;9.74;100.00
66681;BME280;53575;51.366;12.350;2023-03-20T06:23:05;100452.44;;;9.77;100.00
66681;BME280;53575;51.366;12.350;2023-03-20T06:25:30;100455.91;;;9.89;100.00
66681;BME280;53575;51.366;12.350;2023-03-20T06:27:56;100456.78;;;9.86;100.00
66681;BME280;53575;51.366;12.350;2023-03-20T06:30:22;100453.31;;;9.86;100.00
66681;BME280;53575;51.366;12.350;2023-03-20T06:32:47;100462.00;;;9.94;100.00
66681;BME280;53575;51.366;12.350;2023-03-20T06:35:13;100457.66;;;9.97;100.00
66681;BME280;53575;51.366;12.350;2023-03-20T06:37:39;100461.13;;;9.98;100.00
66681;BME280;53575;51.366;12.350;2023-03-20T06:40:06;100466.31;;;10.07;99.63
66681;BME280;53575;51.366;12.350;2023-03-20T06:42:32;100468.06;;;10.11;99.65
66681;BME280;53575;51.366;12.350;2023-03-20T06:44:57;100475.88;;;10.17;99.50
66681;BME280;53575;51.366;12.350;2023-03-20T06:47:23;100475.03;;;9.98;100.00
66681;BME280;53575;51.366;12.350;2023-03-20T06:49:48;100470.69;;;9.97;100.00
66681;BME280;53575;51.366;12.350;2023-03-20T06:52:15;100479.41;;;9.87;100.00
66681;BME280;53575;51.366;12.350;2023-03-20T06:54:41;100475.94;;;9.96;100.00
66681;BME280;53575;51.366;12.350;2023-03-20T06:57:07;100479.38;;;10.09;100.00
66681;BME280;53575;51.366;12.350;2023-03-20T06:59:33;100482.88;;;10.08;100.00
66681;BME280;53575;51.366;12.350;2023-03-20T07:01:58;100487.19;;;10.10;100.00
66681;BME280;53575;51.366;12.350;2023-03-20T07:04:24;100483.75;;;10.05;100.00
66681;BME280;53575;51.366;12.350;2023-03-20T07:06:50;100493.28;;;10.20;100.00
66681;BME280;53575;51.366;12.350;2023-03-20T07:09:16;100489.81;;;10.21;100.00
66681;BME280;53575;51.366;12.350;2023-03-20T07:11:42;100489.81;;;10.24;100.00
66681;BME280;53575;51.366;12.350;2023-03-20T07:14:07;100490.66;;;10.47;100.00
66681;BME280;53575;51.366;12.350;2023-03-20T07:16:33;100492.38;;;10.48;100.00
66681;BME280;53575;51.366;12.350;2023-03-20T07:18:59;100494.09;;;10.53;100.00
66681;BME280;53575;51.366;12.350;2023-03-20T07:21:24;100501.06;;;10.61;99.80
66681;BME280;53575;51.366;12.350;2023-03-20T07:23:50;100501.94;;;10.65;100.00
66681;BME280;53575;51.366;12.350;2023-03-20T07:26:16;100511.53;;;10.55;100.00
66681;BME280;53575;51.366;12.350;2023-03-20T07:28:41;100509.81;;;10.48;100.00
66681;BME280;53575;51.366;12.350;2023-03-20T07:31:18;100512.41;;;10.51;100.00
66681;BME280;53575;51.366;12.350;2023-03-20T07:33:44;100510.69;;;10.50;100.00
66681;BME280;53575;51.366;12.350;2023-03-20T07:36:10;100518.53;;;10.47;100.00
66681;BME280;53575;51.366;12.350;2023-03-20T07:38:35;100509.81;;;10.48;100.00
66681;BME280;53575;51.366;12.350;2023-03-20T07:41:01;100508.94;;;10.51;100.00
66681;BME280;53575;51.366;12.350;2023-03-20T07:43:26;100511.47;;;10.67;100.00
66681;BME280;53575;51.366;12.350;2023-03-20T07:45:52;100507.16;;;10.65;100.00
66681;BME280;53575;51.366;12.350;2023-03-20T07:48:18;100503.63;;;10.72;100.00
66681;BME280;53575;51.366;12.350;2023-03-20T07:50:43;100501.00;;;10.75;100.00
66681;BME280;53575;51.366;12.350;2023-03-20T07:53:08;100506.16;;;10.87;100.00
66681;BME280;53575;51.366;12.350;2023-03-20T07:55:34;100503.53;;;10.90;100.00
66681;BME280;53575;51.366;12.350;2023-03-20T07:57:59;100496.50;;;11.05;100.00
66681;BME280;53575;51.366;12.350;2023-03-20T08:00:25;100505.28;;;10.90;100.00
66681;BME280;53575;51.366;12.350;2023-03-20T08:02:50;100499.97;;;11.13;100.00
66681;BME280;53575;51.366;12.350;2023-03-20T08:05:15;100499.88;;;11.28;99.58
66681;BME280;53575;51.366;12.350;2023-03-20T08:07:41;100494.72;;;11.16;99.89
66681;BME280;53575;51.366;12.350;2023-03-20T08:10:07;100502.50;;;11.27;100.00
66681;BME280;53575;51.366;12.350;2023-03-20T08:12:32;100503.41;;;11.18;100.00
66681;BME280;53575;51.366;12.350;2023-03-20T08:14:58;100506.06;;;11.10;100.00
66681;BME280;53575;51.366;12.350;2023-03-20T08:17:23;100497.31;;;11.17;100.00
66681;BME280;53575;51.366;12.350;2023-03-20T08:19:49;100499.00;;;11.28;99.91
66681;BME280;53575;51.366;12.350;2023-03-20T08:22:15;100504.94;;;11.54;98.40
66681;BME280;53575;51.366;12.350;2023-03-20T08:24:40;100506.69;;;11.54;97.99
66681;BME280;53575;51.366;12.350;2023-03-20T08:27:06;100507.59;;;11.50;98.42
66681;BME280;53575;51.366;12.350;2023-03-20T08:29:31;100504.03;;;11.55;97.41
66681;BME280;53575;51.366;12.350;2023-03-20T08:31:57;100500.56;;;11.56;97.79
66681;BME280;53575;51.366;12.350;2023-03-20T08:34:22;100500.50;;;11.62;96.99
66681;BME280;53575;51.366;12.350;2023-03-20T08:36:48;100500.34;;;11.88;96.20
66681;BME280;53575;51.366;12.350;2023-03-20T08:39:13;100496.69;;;12.06;93.86
66681;BME280;53575;51.366;12.350;2023-03-20T08:41:39;100509.94;;;11.86;94.10
66681;BME280;53575;51.366;12.350;2023-03-20T08:44:07;100505.66;;;11.75;93.76
66681;BME280;53575;51.366;12.350;2023-03-20T08:46:33;100513.53;;;11.73;94.82
66681;BME280;53575;51.366;12.350;2023-03-20T08:48:59;100511.00;;;11.61;94.71
66681;BME280;53575;51.366;12.350;2023-03-20T08:51:25;100521.53;;;11.53;94.95
66681;BME280;53575;51.366;12.350;2023-03-20T08:53:50;100526.69;;;11.64;94.94
66681;BME280;53575;51.366;12.350;2023-03-20T08:56:16;100527.59;;;11.58;95.06
66681;BME280;53575;51.366;12.350;2023-03-20T08:58:42;100527.69;;;11.46;95.94
66681;BME280;53575;51.366;12.350;2023-03-20T09:01:08;100540.75;;;11.46;95.42
66681;BME280;53575;51.366;12.350;2023-03-20T09:03:35;100532.06;;;11.42;95.70
66681;BME280;53575;51.366;12.350;2023-03-20T09:06:04;100536.44;;;11.42;95.30
66681;BME280;53575;51.366;12.350;2023-03-20T09:08:29;100543.41;;;11.38;95.92
66681;BME280;53575;51.366;12.350;2023-03-20T09:10:56;100540.84;;;11.29;96.27
66681;BME280;53575;51.366;12.350;2023-03-20T09:13:21;100543.47;;;11.25;96.77
66681;BME280;53575;51.366;12.350;2023-03-20T09:15:47;100547.91;;;11.10;97.59
66681;BME280;53575;51.366;12.350;2023-03-20T09:18:12;100544.41;;;11.16;97.29
66681;BME280;53575;51.366;12.350;2023-03-20T09:20:38;100542.72;;;11.03;98.02
66681;BME280;53575;51.366;12.350;2023-03-20T09:23:03;100551.44;;;11.03;97.76
66681;BME280;53575;51.366;12.350;2023-03-20T09:25:29;100549.78;;;10.84;97.81
66681;BME280;53575;51.366;12.350;2023-03-20T09:27:54;100552.38;;;10.91;97.54
66681;BME280;53575;51.366;12.350;2023-03-20T09:30:21;100550.69;;;10.73;98.77
66681;BME280;53575;51.366;12.350;2023-03-20T09:32:48;100553.25;;;10.83;98.71
66681;BME280;53575;51.366;12.350;2023-03-20T09:35:14;100553.25;;;10.89;98.64
66681;BME280;53575;51.366;12.350;2023-03-20T09:37:40;100555.84;;;10.86;99.23
66681;BME280;53575;51.366;12.350;2023-03-20T09:40:06;100551.47;;;10.94;98.56
66681;BME280;53575;51.366;12.350;2023-03-20T09:43:01;100555.84;;;10.92;98.44
66681;BME280;53575;51.366;12.350;2023-03-20T09:48:18;100559.31;;;10.91;99.43
66681;BME280;53575;51.366;12.350;2023-03-20T09:51:05;100558.44;;;10.98;99.02
66681;BME280;53575;51.366;12.350;2023-03-20T09:53:40;100563.66;;;10.98;99.09
66681;BME280;53575;51.366;12.350;2023-03-20T09:56:18;100560.19;;;10.96;98.85
66681;BME280;53575;51.366;12.350;2023-03-20T09:58:54;100567.13;;;10.98;98.43
66681;BME280;53575;51.366;12.350;2023-03-20T10:01:23;100563.63;;;11.07;97.72
66681;BME280;53575;51.366;12.350;2023-03-20T10:03:59;100558.44;;;10.98;98.55
66681;BME280;53575;51.366;12.350;2023-03-20T10:06:27;100558.47;;;10.86;99.09
66681;BME280;53575;51.366;12.350;2023-03-20T10:08:52;100555.81;;;11.01;99.58
66681;BME280;53575;51.366;12.350;2023-03-20T10:19:57;100557.34;;;11.45;96.47
66681;BME280;53575;51.366;12.350;2023-03-20T10:22:35;100547.78;;;11.38;97.27
66681;BME280;53575;51.366;12.350;2023-03-20T10:30:25;100542.50;;;11.47;96.53
66681;BME280;53575;51.366;12.350;2023-03-20T10:36:34;100541.50;;;11.68;96.29
66681;BME280;53575;51.366;12.350;2023-03-20T10:42:27;100549.44;;;11.53;97.04
66681;BME280;53575;51.366;12.350;2023-03-20T10:47:43;100538.97;;;11.54;96.59
66681;BME280;53575;51.366;12.350;2023-03-20T10:50:22;100537.25;;;11.44;98.39
66681;BME280;53575;51.366;12.350;2023-03-20T10:52:54;100538.09;;;11.51;98.01
66681;BME280;53575;51.366;12.350;2023-03-20T10:55:47;100538.13;;;11.47;97.95
66681;BME280;53575;51.366;12.350;2023-03-20T10:58:21;100538.09;;;11.51;98.34
66681;BME280;53575;51.366;12.350;2023-03-20T11:00:48;100537.25;;;11.47;97.62
66681;BME280;53575;51.366;12.350;2023-03-20T11:03:22;100533.00;;;11.28;99.23
66681;BME280;53575;51.366;12.350;2023-03-20T11:05:56;100533.00;;;11.28;99.37
66681;BME280;53575;51.366;12.350;2023-03-20T11:08:24;100533.06;;;11.20;100.00
66681;BME280;53575;51.366;12.350;2023-03-20T11:11:00;100535.66;;;11.21;99.99
66681;BME280;53575;51.366;12.350;2023-03-20T11:13:30;100537.38;;;11.24;100.00
66681;BME280;53575;51.366;12.350;2023-03-20T11:16:07;100542.69;;;11.15;100.00
66681;BME280;53575;51.366;12.350;2023-03-20T11:18:34;100538.31;;;11.12;100.00
66681;BME280;53575;51.366;12.350;2023-03-20T11:21:00;100540.97;;;11.05;100.00
66681;BME280;53575;51.366;12.350;2023-03-20T11:23:28;100540.94;;;11.15;100.00
66681;BME280;53575;51.366;12.350;2023-03-20T11:25:58;100540.00;;;11.24;100.00
66681;BME280;53575;51.366;12.350;2023-03-20T11:28:36;100537.44;;;11.15;100.00
66681;BME280;53575;51.366;12.350;2023-03-20T11:33:33;100537.41;;;11.22;100.00
66681;BME280;53575;51.366;12.350;2023-03-20T11:36:00;100530.41;;;11.26;100.00
66681;BME280;53575;51.366;12.350;2023-03-20T11:38:29;100536.44;;;11.42;100.00
66681;BME280;53575;51.366;12.350;2023-03-20T11:40:56;100540.75;;;11.49;100.00
66681;BME280;53575;51.366;12.350;2023-03-20T11:43:23;100539.84;;;11.53;100.00
66681;BME280;53575;51.366;12.350;2023-03-20T11:45:57;100532.00;;;11.53;100.00
66681;BME280;53575;51.366;12.350;2023-03-20T11:48:41;100524.94;;;11.61;100.00
66681;BME280;53575;51.366;12.350;2023-03-20T11:51:15;100532.81;;;11.58;100.00
66681;BME280;53575;51.366;12.350;2023-03-20T11:54:02;100524.94;;;11.63;100.00
66681;BME280;53575;51.366;12.350;2023-03-20T11:56:32;100521.31;;;11.87;100.00
66681;BME280;53575;51.366;12.350;2023-03-20T12:01:44;100522.72;;;12.23;99.20
66681;BME280;53575;51.366;12.350;2023-03-20T12:04:19;100527.06;;;12.27;97.13
66681;BME280;53575;51.366;12.350;2023-03-20T12:06:52;100517.44;;;12.28;96.92
66681;BME280;53575;51.366;12.350;2023-03-20T12:09:34;100516.69;;;12.15;97.58
66681;BME280;53575;51.366;12.350;2023-03-20T12:15:04;100507.41;;;11.76;100.00
66681;BME280;53575;51.366;12.350;2023-03-20T12:17:43;100503.06;;;11.73;100.00
66681;BME280;53575;51.366;12.350;2023-03-20T12:25:23;100503.19;;;11.55;100.00
66681;BME280;53575;51.366;12.350;2023-03-20T12:28:00;100496.09;;;11.72;100.00
66681;BME280;53575;51.366;12.350;2023-03-20T12:30:32;100490.81;;;11.77;99.72
66681;BME280;53575;51.366;12.350;2023-03-20T12:33:11;100491.47;;;12.06;98.91
66681;BME280;53575;51.366;12.350;2023-03-20T12:35:45;100494.88;;;12.13;99.85
66681;BME280;53575;51.366;12.350;2023-03-20T12:38:27;100485.47;;;11.92;98.94
66681;BME280;53575;51.366;12.350;2023-03-20T12:41:21;100480.28;;;11.86;99.90
66681;BME280;53575;51.366;12.350;2023-03-20T12:44:05;100489.91;;;11.87;99.78
66681;BME280;53575;51.366;12.350;2023-03-20T12:46:53;100487.28;;;11.87;100.00
66681;BME280;53575;51.366;12.350;2023-03-20T12:52:08;100474.41;;;11.56;100.00
66681;BME280;53575;51.366;12.350;2023-03-20T12:55:00;100475.22;;;11.60;100.00
66681;BME280;53575;51.366;12.350;2023-03-20T12:57:44;100464.88;;;11.44;100.00
66681;BME280;53575;51.366;12.350;2023-03-20T13:05:36;100460.47;;;11.48;100.00
66681;BME280;53575;51.366;12.350;2023-03-20T13:24:45;100439.00;;;13.47;92.21
66681;BME280;53575;51.366;12.350;2023-03-20T13:27:51;100432.63;;;14.12;88.27
66681;BME280;53575;51.366;12.350;2023-03-20T13:30:30;100430.88;;;14.58;84.53
66681;BME280;53575;51.366;12.350;2023-03-20T13:36:00;100435.31;;;15.33;80.52
66681;BME280;53575;51.366;12.350;2023-03-20T13:38:34;100424.69;;;15.38;79.01
66681;BME280;53575;51.366;12.350;2023-03-20T13:41:06;100421.25;;;14.97;82.67
66681;BME280;53575;51.366;12.350;2023-03-20T13:43:43;100423.56;;;15.48;79.87
66681;BME280;53575;51.366;12.350;2023-03-20T13:46:16;100422.88;;;15.03;79.77
66681;BME280;53575;51.366;12.350;2023-03-20T13:48:44;100420.00;;;15.14;79.65
66681;BME280;53575;51.366;12.350;2023-03-20T14:04:38;100396.59;;;14.18;80.18
66681;BME280;53575;51.366;12.350;2023-03-20T14:07:37;100396.44;;;14.25;80.73
66681;BME280;53575;51.366;12.350;2023-03-20T14:13:03;100395.56;;;14.25;79.60
66681;BME280;53575;51.366;12.350;2023-03-20T14:15:35;100382.81;;;14.48;79.82
66681;BME280;53575;51.366;12.350;2023-03-20T14:18:04;100386.81;;;14.68;78.68
66681;BME280;53575;51.366;12.350;2023-03-20T14:20:40;100383.56;;;14.56;79.83
66681;BME280;53575;51.366;12.350;2023-03-20T14:23:16;100382.03;;;14.86;77.77
66681;BME280;53575;51.366;12.350;2023-03-20T14:25:42;100383.13;;;15.14;76.73
66681;BME280;53575;51.366;12.350;2023-03-20T14:30:44;100374.31;;;14.79;76.96
66681;BME280;53575;51.366;12.350;2023-03-20T14:38:14;100378.13;;;14.66;78.17
66681;BME280;53575;51.366;12.350;2023-03-20T14:51:46;100370.59;;;14.87;75.47
66681;BME280;53575;51.366;12.350;2023-03-20T14:54:27;100362.47;;;14.59;76.68
66681;BME280;53575;51.366;12.350;2023-03-20T14:56:54;100358.34;;;14.46;77.85
66681;BME280;53575;51.366;12.350;2023-03-20T14:59:21;100362.34;;;14.66;77.75
66681;BME280;53575;51.366;12.350;2023-03-20T15:01:58;100356.28;;;14.99;75.51
66681;BME280;53575;51.366;12.350;2023-03-20T15:04:36;100362.16;;;15.10;74.31
66681;BME280;53575;51.366;12.350;2023-03-20T15:07:09;100360.25;;;15.17;74.22
66681;BME280;53575;51.366;12.350;2023-03-20T15:09:41;100358.97;;;14.98;75.63
66681;BME280;53575;51.366;12.350;2023-03-20T15:12:08;100359.03;;;14.56;77.43
66681;BME280;53575;51.366;12.350;2023-03-20T15:15:20;100355.59;;;14.07;79.06
66681;BME280;53575;51.366;12.350;2023-03-20T15:17:38;100356.66;;;13.52;81.95
66681;BME280;53575;51.366;12.350;2023-03-20T15:20:24;100356.31;;;13.18;83.51
66681;BME280;53575;51.366;12.350;2023-03-20T15:23:00;100346.84;;;13.09;84.97
66681;BME280;53575;51.366;12.350;2023-03-20T15:25:43;100349.56;;;13.03;85.54